Terminal Aerodrome Forecast
Issued by NWS

Home | Current Version | Previous Version | Text Only | Print | Product List | Glossary On
Versions: 1 2 3 4 5 6 7 8 9 10 11 12 13 14 15 16 17 18 19 20 21 22 23 24 25 26 27 28 29 30 31 32
000
FTUS41 KGYX 271120
TAFMHT
TAF
KMHT 271120Z 2712/2812 18006KT 6SM HZ SCT100 WS010/23030KT
     FM271300 20012G19KT P6SM SCT050 PROB30 2721/2724 P6SM TS
      BKN050CB
     FM280000 20010KT 6SM HZ SCT010 SCT050=

USA.gov is the U.S. government's official web portal to all federal, state and local government web resources and services.